This is the latest recevied weather packets stored in our database for station/object SP1BMW-13. If no packets are shown the sender has not sent any weather packets the latest 10 day(s).
| Time | Temp. | Humidity | Pressure | Rain* | Wind** | Luminosity | Snow |
|---|---|---|---|---|---|---|---|
| 1787827576 | 24.44° C | 45% | 1019.7 hPa | 0 mm | 1.34 m/s, 44° | 626 W/m² | - |
| 1787827515 | 24.44° C | 43% | 1019.5 hPa | 0 mm | 2.24 m/s, 34° | 632 W/m² | - |
| 1787827456 | 24.44° C | 44% | 1019.4 hPa | 0 mm | 2.24 m/s, 94° | 626 W/m² | - |
| 1787827395 | 24.44° C | 44% | 1019.5 hPa | 0 mm | 1.79 m/s, 42° | 623 W/m² | - |
| 1787827336 | 24.44° C | 44% | 1019.4 hPa | 0 mm | 0.45 m/s, 39° | 624 W/m² | - |
| 1787827275 | 24.44° C | 46% | 1019.6 hPa | 0 mm | 0.89 m/s, 180° | 618 W/m² | - |
| 1787827215 | 24.44° C | 45% | 1019.5 hPa | 0 mm | 0.89 m/s, 59° | 619 W/m² | - |
| 1787827156 | 24.44° C | 44% | 1019.7 hPa | 0 mm | 1.79 m/s, 48° | 622 W/m² | - |
| 1787827095 | 24.44° C | 44% | 1019.5 hPa | 0 mm | 2.24 m/s, 68° | 622 W/m² | - |
| 1787827035 | 24.44° C | 44% | 1019.6 hPa | 0 mm | 2.24 m/s, 43° | 621 W/m² | - |
| 1787826975 | 24.44° C | 43% | 1019.6 hPa | 0 mm | 2.68 m/s, 16° | 620 W/m² | - |
| 1787826915 | 24.44° C | 46% | 1019.5 hPa | 0 mm | 0.89 m/s, 309° | 618 W/m² | - |
| 1787826856 | 24.44° C | 46% | 1019.6 hPa | 0 mm | 0.89 m/s, 17° | 616 W/m² | - |
| 1787826795 | 24.44° C | 45% | 1019.6 hPa | 0 mm | 1.79 m/s, 31° | 618 W/m² | - |
| 1787826736 | 24.44° C | 46% | 1019.6 hPa | 0 mm | 1.34 m/s, 55° | 618 W/m² | - |
| 1787826676 | 24.44° C | 45% | 1019.6 hPa | 0 mm | 2.68 m/s, 28° | 621 W/m² | - |
| 1787826616 | 24.44° C | 44% | 1019.7 hPa | 0 mm | 2.24 m/s, 44° | 615 W/m² | - |
| 1787826556 | 24.44° C | 45% | 1019.8 hPa | 0 mm | 0.45 m/s, 16° | 611 W/m² | - |
| 1787826496 | 24.44° C | 45% | 1019.6 hPa | 0 mm | 0.89 m/s, 64° | 613 W/m² | - |
| 1787826436 | 24.44° C | 45% | 1019.7 hPa | 0 mm | 1.34 m/s, 39° | 614 W/m² | - |
| 1787826376 | 24.44° C | 46% | 1019.8 hPa | 0 mm | 1.34 m/s, 48° | 616 W/m² | - |
| 1787826316 | 24.44° C | 44% | 1019.8 hPa | 0 mm | 2.68 m/s, 42° | 612 W/m² | - |
| 1787826256 | 24.44° C | 45% | 1019.7 hPa | 0 mm | 1.79 m/s, 10° | 609 W/m² | - |
| 1787826195 | 25° C | 44% | 1019.7 hPa | 0 mm | 1.79 m/s, 34° | 607 W/m² | - |
| 1787826136 | 25° C | 43% | 1019.7 hPa | 0 mm | 2.24 m/s, 58° | 608 W/m² | - |
* Rain latest hour (hover to see other rain measurements)
** Current wind speed in m/s (hover to see current wind gust speed)